Time;durP1;ratioP1;P1;durP2;ratioP2;P2;SDS_P1;SDS_P2;PMS_P1;PMS_P2;Temp;Humidity;BMP_temperature;BMP_pressure;BME280_temperature;BME280_humidity;BME280_pressure;Samples;Min_cycle;Max_cycle;Signal;HPM_P1;HPM_P2
2022/12/03 00:00:06;;;;;;;27.63;14.90;;;;;;;1.67;80.13;102261.41;5152455;27;20479;-70
2022/12/03 00:02:40;;;;;;;27.08;15.15;;;;;;;1.63;80.47;102256.94;5149466;27;20046;-73
2022/12/03 00:05:08;;;;;;;27.88;14.60;;;;;;;1.61;80.89;102258.63;5142432;27;20040;-71
2022/12/03 00:07:35;;;;;;;30.75;15.13;;;;;;;1.63;80.87;102257.81;5153986;27;20049;-71
2022/12/03 00:10:04;;;;;;;30.35;15.77;;;;;;;1.63;80.66;102255.22;5147601;27;20760;-69
2022/12/03 00:12:31;;;;;;;28.42;15.70;;;;;;;1.66;80.66;102254.44;5134343;27;20070;-69
2022/12/03 00:14:58;;;;;;;28.38;15.00;;;;;;;1.67;80.80;102251.00;5148635;27;20035;-70
2022/12/03 00:17:25;;;;;;;30.88;15.65;;;;;;;1.64;80.71;102248.31;5149871;27;20047;-70
2022/12/03 00:19:52;;;;;;;29.98;15.63;;;;;;;1.69;80.71;102255.41;5146571;27;20066;-69
2022/12/03 00:22:19;;;;;;;29.10;15.40;;;;;;;1.67;80.66;102240.63;5146046;27;20542;-69
2022/12/03 00:24:47;;;;;;;29.42;15.70;;;;;;;1.67;80.72;102245.81;5151288;27;20044;-70
2022/12/03 00:27:15;;;;;;;27.35;15.50;;;;;;;1.69;80.76;102236.31;5151968;27;20039;-69
2022/12/03 00:29:43;;;;;;;31.33;16.42;;;;;;;1.66;80.82;102244.91;5144041;27;20080;-69
2022/12/03 00:32:10;;;;;;;30.45;16.02;;;;;;;1.67;80.88;102235.41;5138651;27;20043;-70
2022/12/03 00:34:38;;;;;;;33.28;16.58;;;;;;;1.66;80.82;102225.84;5143096;27;20429;-68
2022/12/03 00:37:05;;;;;;;29.63;15.93;;;;;;;1.72;80.61;102230.34;5149419;27;20036;-69
2022/12/03 00:39:33;;;;;;;29.52;16.17;;;;;;;1.67;80.68;102235.41;5147928;27;20031;-69
2022/12/03 00:42:00;;;;;;;28.55;16.25;;;;;;;1.64;81.04;102230.13;5149342;27;20035;-69
2022/12/03 00:44:27;;;;;;;29.17;15.77;;;;;;;1.71;80.60;102237.25;5141155;27;20043;-69
2022/12/03 00:46:54;;;;;;;29.33;16.40;;;;;;;1.67;80.96;102232.81;5153099;27;20039;-70
2022/12/03 00:49:21;;;;;;;30.80;16.20;;;;;;;1.63;81.32;102228.34;5141883;27;20038;-70
2022/12/03 00:51:48;;;;;;;32.33;16.80;;;;;;;1.63;81.42;102226.63;5144964;27;20723;-69
2022/12/03 00:54:15;;;;;;;29.30;15.93;;;;;;;1.66;81.27;102225.84;5147171;27;20140;-69
2022/12/03 00:56:43;;;;;;;30.23;16.50;;;;;;;1.65;81.43;102231.88;5140027;27;20044;-68
2022/12/03 00:59:10;;;;;;;30.38;16.55;;;;;;;1.67;80.96;102230.22;5145612;27;20062;-69
2022/12/03 01:01:37;;;;;;;31.05;16.40;;;;;;;1.61;81.36;102224.81;5143444;27;20048;-69
2022/12/03 01:04:05;;;;;;;30.92;16.80;;;;;;;1.64;81.41;102227.53;5148846;27;20039;-70
2022/12/03 01:06:32;;;;;;;33.05;16.52;;;;;;;1.69;81.08;102228.50;5152595;27;20450;-70
2022/12/03 01:08:59;;;;;;;31.95;17.50;;;;;;;1.68;81.06;102232.84;5149395;27;20036;-69
2022/12/03 01:11:38;;;;;;;31.13;17.15;;;;;;;1.67;81.14;102227.63;5152154;27;20139;-70
2022/12/03 01:14:18;;;;;;;32.88;17.58;;;;;;;1.66;81.13;102229.31;5144144;27;20827;-70
2022/12/03 01:16:47;;;;;;;31.17;17.20;;;;;;;1.64;81.26;102233.59;5145244;27;20040;-70
2022/12/03 01:19:15;;;;;;;31.42;17.25;;;;;;;1.66;81.33;102237.13;5150348;27;20044;-70
2022/12/03 01:21:49;;;;;;;29.55;16.40;;;;;;;1.70;81.09;102235.47;5140390;27;20047;-70
2022/12/03 01:24:18;;;;;;;30.17;16.88;;;;;;;1.67;81.32;102235.41;5144572;27;20082;-70
2022/12/03 01:26:45;;;;;;;30.88;17.13;;;;;;;1.66;81.37;102236.25;5136256;27;20553;-70
2022/12/03 01:29:13;;;;;;;31.98;16.80;;;;;;;1.70;81.07;102232.88;5151489;27;20047;-70
2022/12/03 01:34:26;;;;;;;33.20;16.77;;;;;;;1.70;81.26;102235.47;5136872;27;20043;-69
2022/12/03 01:36:53;;;;;;;32.50;15.90;;;;;;;1.69;81.20;102238.91;5150137;27;20036;-70
2022/12/03 01:39:20;;;;;;;28.50;15.82;;;;;;;1.70;80.94;102236.38;5137115;27;20098;-70
2022/12/03 01:41:50;;;;;;;32.28;17.42;;;;;;;1.67;81.23;102230.22;5149595;27;20508;-70
2022/12/03 01:44:25;;;;;;;30.63;16.20;;;;;;;1.67;81.30;102230.22;5139057;27;20069;-69
2022/12/03 01:46:57;;;;;;;31.23;16.52;;;;;;;1.72;80.96;102225.16;5149427;27;20039;-70
2022/12/03 01:49:30;;;;;;;28.25;15.50;;;;;;;1.68;81.28;102225.06;5148005;27;20483;-70
2022/12/03 01:51:58;;;;;;;30.83;17.35;;;;;;;1.67;81.26;102225.88;5148849;27;20074;-69
2022/12/03 01:54:34;;;;;;;30.42;16.08;;;;;;;1.70;81.00;102212.97;5145234;27;20047;-70
2022/12/03 01:57:01;;;;;;;31.52;17.38;;;;;;;1.69;81.09;102218.13;5144468;27;20044;-69
2022/12/03 01:59:37;;;;;;;31.40;16.95;;;;;;;1.66;81.33;102221.50;5151004;27;20039;-69
2022/12/03 02:02:21;;;;;;;31.05;16.85;;;;;;;1.69;81.24;102231.13;5147708;27;20039;-71
2022/12/03 02:04:52;;;;;;;30.88;16.98;;;;;;;1.66;81.25;102220.66;5166543;27;20047;-71
2022/12/03 02:07:26;;;;;;;30.80;16.52;;;;;;;1.65;81.13;102217.16;5153496;27;20043;-70
2022/12/03 02:09:58;;;;;;;31.27;16.40;;;;;;;1.66;81.40;102218.91;5158320;27;20136;-68
2022/12/03 02:12:55;;;;;;;32.03;16.75;;;;;;;1.65;81.35;102214.56;5151605;27;20097;-68
2022/12/03 02:15:24;;;;;;;32.17;17.13;;;;;;;1.68;81.30;102224.16;5151624;27;20054;-67
2022/12/03 02:17:54;;;;;;;30.65;16.58;;;;;;;1.66;81.40;102215.44;5145154;27;20097;-67
2022/12/03 02:20:21;;;;;;;31.17;17.67;;;;;;;1.64;81.57;102222.31;5150187;27;20043;-67
2022/12/03 02:23:39;;;;;;;32.40;17.70;;;;;;;1.64;81.73;102224.91;5154301;27;20424;-69
2022/12/03 02:26:06;;;;;;;30.88;17.50;;;;;;;1.62;81.94;102224.88;5147193;27;20066;-69
2022/12/03 02:28:34;;;;;;;30.50;16.65;;;;;;;1.69;81.38;102219.00;5140709;27;20502;-69
2022/12/03 02:31:01;;;;;;;29.00;17.38;;;;;;;1.66;81.56;102208.50;5146584;27;20043;-70
2022/12/03 02:33:28;;;;;;;29.33;16.27;;;;;;;1.76;80.86;102214.88;5154123;27;20114;-70
2022/12/03 02:35:55;;;;;;;30.52;17.80;;;;;;;1.72;80.88;102213.00;5152616;27;20050;-68
2022/12/03 02:38:33;;;;;;;28.60;17.27;;;;;;;1.68;81.15;102205.94;5153346;27;20044;-68
2022/12/03 02:41:09;;;;;;;31.75;17.50;;;;;;;1.66;81.23;102205.91;5148621;27;20078;-69
2022/12/03 02:43:37;;;;;;;31.67;17.55;;;;;;;1.64;81.54;102206.72;5145548;27;20044;-67
2022/12/03 02:46:07;;;;;;;32.15;17.17;;;;;;;1.64;81.71;102206.72;5149386;27;20142;-67
2022/12/03 02:48:38;;;;;;;33.17;17.23;;;;;;;1.64;81.72;102202.38;5152350;27;20032;-68
2022/12/03 02:51:10;;;;;;;31.58;17.77;;;;;;;1.67;81.52;102204.22;5141594;27;20124;-68
2022/12/03 02:53:43;;;;;;;34.25;18.25;;;;;;;1.69;81.37;102210.31;5151195;27;20577;-67
2022/12/03 02:56:17;;;;;;;33.25;18.58;;;;;;;1.68;81.50;102205.94;5148164;27;20046;-68
2022/12/03 02:58:49;;;;;;;31.05;16.52;;;;;;;1.67;81.46;102194.69;5146630;27;20024;-70
2022/12/03 03:01:16;;;;;;;30.30;16.75;;;;;;;1.65;81.66;102200.69;5140650;27;20217;-70
2022/12/03 03:03:46;;;;;;;32.33;17.00;;;;;;;1.64;81.75;102191.13;5146187;27;20085;-70
2022/12/03 03:06:17;;;;;;;31.15;18.33;;;;;;;1.66;81.93;102198.13;5146468;27;20047;-70
2022/12/03 03:08:44;;;;;;;30.20;17.20;;;;;;;1.69;81.56;102198.22;5150287;27;20043;-70
2022/12/03 03:11:12;;;;;;;33.65;17.85;;;;;;;1.68;81.36;102192.94;5149809;27;20059;-70
2022/12/03 03:13:39;;;;;;;32.42;17.98;;;;;;;1.66;81.52;102202.44;5152803;27;20047;-70
2022/12/03 03:16:08;;;;;;;29.45;17.80;;;;;;;1.66;81.57;102197.25;5151404;27;20040;-70
2022/12/03 03:18:35;;;;;;;29.70;17.27;;;;;;;1.68;81.60;102199.03;5134871;27;20065;-70
2022/12/03 03:21:04;;;;;;;34.22;18.05;;;;;;;1.68;81.44;102195.53;5139201;27;20043;-71
2022/12/03 03:23:31;;;;;;;32.17;18.38;;;;;;;1.69;81.44;102194.72;5147566;27;20065;-70
2022/12/03 03:26:03;;;;;;;30.92;17.52;;;;;;;1.68;81.71;102191.25;5145355;27;20509;-71
2022/12/03 03:28:35;;;;;;;29.85;17.30;;;;;;;1.69;81.41;102187.81;5145082;27;20520;-71
2022/12/03 03:31:15;;;;;;;33.05;18.10;;;;;;;1.70;81.20;102178.28;5147918;27;20044;-70
2022/12/03 03:33:45;;;;;;;31.02;17.70;;;;;;;1.70;81.26;102179.19;5149864;27;20490;-69
2022/12/03 03:36:14;;;;;;;32.75;17.90;;;;;;;1.69;81.16;102176.50;5150766;27;20036;-68
2022/12/03 03:38:42;;;;;;;32.30;17.77;;;;;;;1.72;81.18;102176.59;5147083;27;20035;-68
2022/12/03 03:41:11;;;;;;;30.33;18.42;;;;;;;1.73;80.93;102180.97;5147981;27;20493;-68
2022/12/03 03:43:44;;;;;;;33.00;18.63;;;;;;;1.68;81.35;102175.66;5150429;27;20043;-68
2022/12/03 03:46:13;;;;;;;30.20;17.60;;;;;;;1.68;81.56;102179.94;5151127;27;20714;-69
2022/12/03 03:48:42;;;;;;;31.90;18.23;;;;;;;1.70;81.40;102167.88;5150927;27;20039;-68
2022/12/03 03:51:12;;;;;;;35.63;18.50;;;;;;;1.67;81.46;102176.47;5146812;27;20039;-69
2022/12/03 03:53:47;;;;;;;34.00;18.88;;;;;;;1.66;81.54;102168.66;5141650;27;20125;-68
2022/12/03 03:56:20;;;;;;;33.35;18.77;;;;;;;1.68;81.43;102173.03;5143295;27;20082;-68
2022/12/03 03:58:47;;;;;;;37.15;20.13;;;;;;;1.69;81.46;102173.91;5149675;27;20046;-68
2022/12/03 04:01:16;;;;;;;35.08;18.83;;;;;;;1.66;81.72;102173.84;5152826;27;20889;-68
2022/12/03 04:03:44;;;;;;;34.70;17.98;;;;;;;1.67;81.63;102163.47;5147416;27;20066;-69
2022/12/03 04:06:11;;;;;;;34.33;18.83;;;;;;;1.63;81.69;102160.75;5152450;27;20043;-67
2022/12/03 04:08:44;;;;;;;33.78;18.45;;;;;;;1.63;81.84;102168.56;5143162;27;20736;-67
2022/12/03 04:13:57;;;;;;;34.85;18.85;;;;;;;1.61;81.79;102163.31;5148991;27;20819;-66
2022/12/03 04:16:28;;;;;;;36.97;19.88;;;;;;;1.64;81.79;102162.53;5152730;27;20564;-67
2022/12/03 04:18:55;;;;;;;39.30;20.05;;;;;;;1.63;81.86;102161.63;5147392;27;20603;-68
2022/12/03 04:24:10;;;;;;;36.08;18.90;;;;;;;1.62;81.90;102169.38;5149636;27;20072;-70
2022/12/03 04:29:23;;;;;;;40.28;19.73;;;;;;;1.58;82.32;102170.16;5135928;27;20582;-68
2022/12/03 04:37:22;;;;;;;38.05;18.55;;;;;;;1.64;82.23;102171.19;5150033;27;20044;-67
2022/12/03 04:39:49;;;;;;;38.50;20.05;;;;;;;1.63;82.09;102171.16;5143158;27;20491;-68
2022/12/03 04:42:16;;;;;;;39.17;21.08;;;;;;;1.55;82.34;102164.03;5152425;27;20130;-68
2022/12/03 04:44:43;;;;;;;37.13;19.88;;;;;;;1.54;82.70;102166.56;5137508;27;20039;-68
2022/12/03 04:47:16;;;;;;;40.88;20.95;;;;;;;1.53;82.70;102168.31;5152358;27;20377;-68
2022/12/03 04:49:49;;;;;;;35.20;19.38;;;;;;;1.52;82.82;102174.34;5152108;27;20487;-69
2022/12/03 04:52:19;;;;;;;41.53;20.67;;;;;;;1.49;82.94;102166.44;5147604;27;20093;-68
2022/12/03 04:54:46;;;;;;;37.70;19.88;;;;;;;1.47;83.50;102164.63;5142801;27;20096;-69
2022/12/03 04:57:13;;;;;;;40.85;21.02;;;;;;;1.52;83.12;102168.25;5150103;27;20041;-70
2022/12/03 04:59:40;;;;;;;38.13;20.58;;;;;;;1.50;83.23;102164.75;5149284;27;20043;-69
2022/12/03 05:02:08;;;;;;;39.33;20.80;;;;;;;1.50;83.37;102168.19;5151590;27;20114;-69
2022/12/03 05:04:35;;;;;;;39.25;21.25;;;;;;;1.50;83.17;102157.81;5143858;27;20046;-69
2022/12/03 05:07:03;;;;;;;41.10;20.48;;;;;;;1.51;83.50;102154.38;5150293;27;20040;-70
2022/12/03 05:09:32;;;;;;;40.70;22.02;;;;;;;1.48;83.60;102154.28;5147128;27;20050;-69
2022/12/03 05:11:59;;;;;;;43.38;21.45;;;;;;;1.49;83.46;102158.63;5143002;27;20059;-70
2022/12/03 05:14:26;;;;;;;42.95;21.17;;;;;;;1.53;83.30;102162.19;5149608;27;20493;-70
2022/12/03 05:16:53;;;;;;;42.45;21.95;;;;;;;1.54;83.20;102150.97;5151043;27;20043;-69
2022/12/03 05:20:40;;;;;;;42.22;20.95;;;;;;;1.52;83.09;102147.47;5147450;27;20035;-67
2022/12/03 05:22:07;;;;;;;42.00;21.92;;;;;;;1.47;83.50;102152.53;5151983;27;20453;-69
2022/12/03 05:24:35;;;;;;;42.40;21.40;;;;;;;1.46;83.50;102142.97;5149529;27;20035;-67
2022/12/03 05:27:02;;;;;;;41.92;21.00;;;;;;;1.42;84.04;102148.06;5152747;27;20044;-68
2022/12/03 05:29:29;;;;;;;45.25;21.23;;;;;;;1.43;84.09;102136.78;5150341;27;20042;-68
2022/12/03 05:31:56;;;;;;;44.22;21.90;;;;;;;1.49;83.81;102137.84;5152370;27;20035;-68
2022/12/03 05:34:23;;;;;;;37.58;20.30;;;;;;;1.51;83.44;102137.91;5151293;27;20980;-68
2022/12/03 05:36:50;;;;;;;37.72;19.98;;;;;;;1.45;83.75;102142.91;5138784;27;20038;-67
2022/12/03 05:39:17;;;;;;;39.88;20.20;;;;;;;1.44;83.82;102138.56;5152552;27;20089;-68
2022/12/03 05:44:30;;;;;;;39.33;19.13;;;;;;;1.46;83.65;102131.69;5138499;27;20047;-69
2022/12/03 05:46:57;;;;;;;37.10;19.90;;;;;;;1.46;83.64;102140.38;5150844;27;20039;-70
2022/12/03 05:49:24;;;;;;;41.00;20.17;;;;;;;1.44;83.68;102130.75;5143622;27;20043;-71
2022/12/03 05:51:51;;;;;;;39.13;19.92;;;;;;;1.45;83.75;102128.22;5150724;27;20046;-70
2022/12/03 05:54:25;;;;;;;38.13;19.85;;;;;;;1.45;83.68;102130.81;5145163;27;20043;-70
2022/12/03 05:56:53;;;;;;;39.05;19.95;;;;;;;1.44;83.70;102130.75;5137435;27;20040;-71
2022/12/03 05:59:20;;;;;;;40.42;19.10;;;;;;;1.46;83.47;102131.69;5145329;27;20432;-70
2022/12/03 06:01:47;;;;;;;36.35;18.95;;;;;;;1.43;83.46;102127.28;5141198;27;20051;-69
2022/12/03 06:04:15;;;;;;;37.28;18.90;;;;;;;1.43;83.61;102134.19;5146322;27;20043;-70
2022/12/03 06:06:43;;;;;;;41.97;19.75;;;;;;;1.42;83.84;102135.91;5132585;27;20031;-71
2022/12/03 06:09:11;;;;;;;39.60;19.58;;;;;;;1.43;83.64;102131.59;5135189;27;20044;-71
2022/12/03 06:11:39;;;;;;;37.63;18.63;;;;;;;1.42;83.59;102128.13;5140772;27;20063;-71
2022/12/03 06:14:06;;;;;;;35.95;19.15;;;;;;;1.39;83.81;102133.22;5138346;27;20533;-71
2022/12/03 06:16:35;;;;;;;37.20;17.98;;;;;;;1.47;83.48;102123.94;5136505;27;20040;-70
2022/12/03 06:19:02;;;;;;;37.35;16.40;;;;;;;1.43;83.58;102131.59;5132920;27;20084;-67
2022/12/03 06:21:30;;;;;;;37.10;18.35;;;;;;;1.45;83.56;102136.03;5141307;27;20479;-69
2022/12/03 06:23:57;;;;;;;35.55;18.30;;;;;;;1.41;83.66;102128.09;5139913;27;20047;-70
2022/12/03 06:26:24;;;;;;;38.55;18.50;;;;;;;1.43;83.65;102129.00;5135793;27;20043;-70
2022/12/03 06:28:51;;;;;;;34.13;17.70;;;;;;;1.42;83.56;102122.94;5136875;27;20046;-69
2022/12/03 06:31:18;;;;;;;35.50;17.70;;;;;;;1.44;83.41;102126.47;5134316;27;20119;-69
2022/12/03 06:33:46;;;;;;;36.47;17.70;;;;;;;1.46;83.32;102121.28;5138318;27;20047;-69
2022/12/03 06:36:13;;;;;;;34.40;16.98;;;;;;;1.45;83.05;102119.53;5140106;27;20035;-68
2022/12/03 06:38:47;;;;;;;34.77;17.70;;;;;;;1.41;83.14;102121.16;5141639;27;20039;-69
2022/12/03 06:41:15;;;;;;;33.88;17.63;;;;;;;1.42;83.21;102112.53;5137779;27;20035;-69
2022/12/03 06:43:42;;;;;;;36.10;17.58;;;;;;;1.41;83.34;102115.97;5131402;27;20496;-69
2022/12/03 06:46:09;;;;;;;35.47;18.70;;;;;;;1.39;83.56;102110.75;5138406;27;20052;-69
2022/12/03 06:48:36;;;;;;;33.97;17.02;;;;;;;1.41;83.45;102113.38;5141353;27;20035;-68
2022/12/03 06:51:04;;;;;;;36.25;18.27;;;;;;;1.40;83.52;102116.81;5137229;27;20093;-68
2022/12/03 06:53:31;;;;;;;36.85;18.33;;;;;;;1.40;83.61;102122.00;5138671;27;20046;-68
2022/12/03 06:55:58;;;;;;;33.50;17.35;;;;;;;1.42;83.31;102119.47;5144330;27;21494;-68
2022/12/03 06:58:25;;;;;;;36.03;17.92;;;;;;;1.40;83.33;102122.00;5142959;27;20105;-68
2022/12/03 07:00:52;;;;;;;34.13;17.33;;;;;;;1.43;83.08;102118.59;5146056;27;20045;-68
2022/12/03 07:03:20;;;;;;;35.72;18.00;;;;;;;1.39;83.36;102112.44;5137862;27;20493;-68
2022/12/03 07:05:47;;;;;;;32.20;16.73;;;;;;;1.45;82.88;102123.03;5141240;27;20039;-67
2022/12/03 07:08:14;;;;;;;35.22;16.98;;;;;;;1.42;83.12;102125.53;5147695;27;20496;-66
2022/12/03 07:10:41;;;;;;;33.70;16.27;;;;;;;1.41;83.45;102121.16;5145291;27;20060;-66
2022/12/03 07:13:09;;;;;;;34.10;17.50;;;;;;;1.41;83.20;102115.97;5136957;27;20114;-69
2022/12/03 07:15:36;;;;;;;35.10;17.00;;;;;;;1.44;83.11;102128.16;5141076;27;20050;-69
2022/12/03 07:18:03;;;;;;;32.42;16.73;;;;;;;1.46;82.79;102111.78;5140168;27;20051;-68
2022/12/03 07:20:30;;;;;;;33.60;16.77;;;;;;;1.45;82.78;102123.03;5141455;27;20044;-68
2022/12/03 07:22:58;;;;;;;33.80;16.73;;;;;;;1.42;83.03;102122.06;5139049;27;20043;-68
2022/12/03 07:25:25;;;;;;;35.42;17.17;;;;;;;1.41;83.12;102121.16;5140055;27;20155;-68
2022/12/03 07:27:52;;;;;;;33.83;16.45;;;;;;;1.46;82.59;102122.19;5142941;27;20050;-68
2022/12/03 07:30:19;;;;;;;40.55;17.65;;;;;;;1.41;83.08;102120.28;5141133;27;20137;-67
2022/12/03 07:32:46;;;;;;;37.58;17.30;;;;;;;1.40;83.04;102116.81;5146160;27;20070;-67
2022/12/03 07:35:14;;;;;;;38.72;17.50;;;;;;;1.51;83.22;102119.72;5150626;27;20043;-69
2022/12/03 07:37:41;;;;;;;38.65;18.15;;;;;;;1.64;83.20;102118.31;5140413;27;20044;-68
2022/12/03 07:40:10;;;;;;;36.97;16.85;;;;;;;1.64;81.98;102120.94;5138006;27;20036;-67
2022/12/03 07:42:37;;;;;;;40.53;18.02;;;;;;;1.65;81.70;102125.28;5141471;27;20525;-67
2022/12/03 07:45:05;;;;;;;36.78;17.10;;;;;;;1.63;81.34;102124.34;5142708;27;20041;-68
2022/12/03 07:47:32;;;;;;;38.58;18.95;;;;;;;1.62;81.76;102118.28;5143386;27;20140;-69
2022/12/03 07:49:59;;;;;;;37.95;17.75;;;;;;;1.69;81.55;102120.22;5137119;27;20491;-69
2022/12/03 07:52:26;;;;;;;40.90;18.75;;;;;;;1.75;81.64;102119.50;5142145;27;20071;-69
2022/12/03 07:54:53;;;;;;;41.20;18.83;;;;;;;1.78;81.15;102127.34;5137908;27;20035;-69
2022/12/03 07:57:21;;;;;;;39.92;18.63;;;;;;;1.76;80.78;102122.97;5140071;27;20040;-70
2022/12/03 07:59:48;;;;;;;38.75;18.52;;;;;;;1.75;81.32;102123.81;5135332;27;20043;-70
2022/12/03 08:02:16;;;;;;;40.95;18.63;;;;;;;1.85;81.33;102121.50;5136790;27;20039;-70
2022/12/03 08:04:47;;;;;;;38.83;18.88;;;;;;;1.86;80.46;102118.06;5144426;27;20088;-70
2022/12/03 08:07:14;;;;;;;43.92;19.70;;;;;;;1.82;80.13;102125.75;5144845;27;20054;-70
2022/12/03 08:09:42;;;;;;;38.97;18.85;;;;;;;1.80;80.26;102123.09;5143072;27;20035;-70
2022/12/03 08:12:23;;;;;;;40.35;18.00;;;;;;;1.81;80.33;102134.38;5141185;27;20056;-68
2022/12/03 08:14:51;;;;;;;41.20;19.17;;;;;;;1.75;80.22;102132.50;5138683;27;20047;-67
2022/12/03 08:17:22;;;;;;;45.08;19.48;;;;;;;1.67;80.31;102137.47;5141682;27;20051;-67
2022/12/03 08:19:49;;;;;;;38.63;18.52;;;;;;;1.63;80.63;102134.75;5140488;27;20042;-67
2022/12/03 08:22:16;;;;;;;43.22;19.02;;;;;;;1.60;80.60;102132.97;5143017;27;20043;-67
2022/12/03 08:24:43;;;;;;;42.83;18.80;;;;;;;1.54;80.72;102132.78;5141753;27;20105;-67
2022/12/03 08:27:18;;;;;;;43.85;19.77;;;;;;;1.53;80.94;102129.31;5146832;27;20039;-68
2022/12/03 08:29:46;;;;;;;43.67;19.05;;;;;;;1.48;81.58;102133.47;5144413;27;20052;-68
2022/12/03 08:32:13;;;;;;;43.47;19.85;;;;;;;1.53;81.27;102128.41;5145101;27;20044;-68
2022/12/03 08:34:43;;;;;;;42.83;18.77;;;;;;;1.52;81.30;102137.94;5137740;27;20086;-68
2022/12/03 08:37:17;;;;;;;43.92;20.35;;;;;;;1.48;81.50;102133.47;5147219;27;20092;-68
2022/12/03 08:39:47;;;;;;;;;;;;;;;1.43;81.78;102137.69;5142404;27;20035;-68
2022/12/03 08:42:40;;;;;;;46.95;20.48;;;;;;;1.47;81.21;102139.53;5146251;27;19931;-68
2022/12/03 08:45:38;;;;;;;44.45;19.55;;;;;;;1.45;80.95;102133.41;5141664;27;20070;-68
2022/12/03 08:48:17;;;;;;;42.58;19.35;;;;;;;1.44;80.98;102131.66;5139544;27;20048;-69
2022/12/03 08:50:45;;;;;;;43.53;19.40;;;;;;;1.41;81.21;102121.16;5140749;27;20036;-67
2022/12/03 08:53:13;;;;;;;44.03;18.70;;;;;;;1.46;81.30;102134.28;5143358;27;20045;-68
2022/12/03 08:55:47;;;;;;;43.35;19.20;;;;;;;1.46;81.14;102137.78;5145224;27;20050;-69
2022/12/03 08:58:35;;;;;;;42.88;17.98;;;;;;;1.51;80.71;102133.56;5144202;27;20039;-68
2022/12/03 09:01:42;;;;;;;46.83;20.45;;;;;;;1.44;81.09;102138.56;5135996;27;20039;-68
2022/12/03 09:04:37;;;;;;;41.97;19.50;;;;;;;1.41;80.96;102144.56;5135460;27;20066;-68
2022/12/03 09:07:04;;;;;;;50.28;20.83;;;;;;;1.38;81.09;102137.56;5132921;27;20044;-68
2022/12/03 09:09:33;;;;;;;49.53;20.30;;;;;;;1.39;81.28;102134.13;5139360;27;20044;-68
2022/12/03 09:12:01;;;;;;;44.58;19.45;;;;;;;1.37;81.37;102143.59;5137722;27;20819;-68
2022/12/03 09:14:28;;;;;;;47.22;19.88;;;;;;;1.35;81.80;102140.06;5141045;27;20089;-69
2022/12/03 09:16:55;;;;;;;46.33;20.15;;;;;;;1.35;82.08;102142.66;5148492;27;20046;-68
2022/12/03 09:19:26;;;;;;;48.17;20.02;;;;;;;1.34;82.31;102140.91;5148202;27;20039;-68
2022/12/03 09:21:53;;;;;;;45.88;19.42;;;;;;;1.41;82.03;102144.56;5143066;27;20043;-67
2022/12/03 09:24:21;;;;;;;46.75;20.55;;;;;;;1.36;81.95;102140.97;5144793;27;20040;-66
2022/12/03 09:26:49;;;;;;;46.42;19.73;;;;;;;1.31;82.06;102143.44;5142312;27;20040;-67
2022/12/03 09:29:16;;;;;;;45.00;18.45;;;;;;;1.30;82.09;102140.75;5148633;27;20537;-67
2022/12/03 09:31:43;;;;;;;43.83;19.48;;;;;;;1.27;82.07;102135.50;5150452;27;20513;-66
2022/12/03 09:34:10;;;;;;;42.53;18.08;;;;;;;1.27;82.27;102138.09;5132562;27;20048;-68
2022/12/03 09:36:37;;;;;;;40.55;16.92;;;;;;;1.30;81.96;102140.75;5140507;27;20557;-67
2022/12/03 09:39:04;;;;;;;39.05;17.10;;;;;;;1.29;81.30;102137.28;5150464;27;20043;-68
2022/12/03 09:41:31;;;;;;;36.03;15.93;;;;;;;1.28;81.04;102138.13;5144421;27;20043;-68
2022/12/03 09:44:00;;;;;;;34.33;15.75;;;;;;;1.27;81.17;102125.97;5143448;27;20050;-68
2022/12/03 09:46:35;;;;;;;34.85;15.77;;;;;;;1.28;80.55;102127.75;5134445;27;20096;-68
2022/12/03 09:49:05;;;;;;;31.95;16.13;;;;;;;1.33;79.91;102127.88;5141821;27;20058;-69
2022/12/03 09:51:44;;;;;;;34.60;16.40;;;;;;;1.27;80.51;102123.38;5144019;27;20051;-67
2022/12/03 09:54:24;;;;;;;31.83;15.15;;;;;;;1.33;80.50;102122.66;5139138;27;20043;-68
2022/12/03 09:56:54;;;;;;;30.67;14.68;;;;;;;1.39;79.87;102118.53;5142441;27;20508;-67
2022/12/03 09:59:26;;;;;;;31.52;14.40;;;;;;;1.48;79.08;102111.81;5137777;27;20044;-68
2022/12/03 10:01:58;;;;;;;29.98;14.57;;;;;;;1.53;78.94;102118.00;5139386;27;20096;-68
2022/12/03 10:04:28;;;;;;;32.03;14.73;;;;;;;1.57;79.44;102112.06;5139258;27;20035;-71
2022/12/03 10:06:57;;;;;;;24.67;12.73;;;;;;;1.68;77.47;102114.94;5132613;27;20541;-69
2022/12/03 10:09:28;;;;;;;22.55;11.52;;;;;;;1.70;75.91;102114.19;5132068;27;20078;-68
2022/12/03 10:11:58;;;;;;;23.73;11.40;;;;;;;1.65;76.26;102118.34;5138682;27;20044;-69
2022/12/03 10:14:26;;;;;;;22.00;11.48;;;;;;;1.62;76.57;102112.19;5138170;27;20040;-66
2022/12/03 10:16:54;;;;;;;23.50;12.35;;;;;;;1.67;75.89;102098.47;5141368;27;20043;-67
2022/12/03 10:19:26;;;;;;;21.83;11.95;;;;;;;1.72;75.57;102101.22;5138492;27;20492;-66
2022/12/03 10:21:54;;;;;;;25.20;12.10;;;;;;;1.72;75.43;102103.81;5141965;27;20050;-66
2022/12/03 10:24:32;;;;;;;23.95;12.32;;;;;;;1.70;75.93;102100.28;5148506;27;20046;-66
2022/12/03 10:27:21;;;;;;;23.50;11.68;;;;;;;1.73;75.71;102092.56;5149485;27;20175;-66
2022/12/03 10:30:00;;;;;;;23.15;12.07;;;;;;;1.70;76.05;102085.56;5137818;27;20039;-67
2022/12/03 10:32:44;;;;;;;27.60;12.75;;;;;;;1.75;75.35;102082.19;5136109;27;20035;-66
2022/12/03 10:35:17;;;;;;;21.83;11.98;;;;;;;1.71;74.95;102078.63;5138519;27;20093;-66
2022/12/03 10:38:23;;;;;;;23.67;12.77;;;;;;;1.74;75.08;102080.44;5144070;27;20116;-69
2022/12/03 10:40:50;;;;;;;;;;;;;;;1.65;75.73;102075.91;5143126;27;20090;-69
2022/12/03 10:43:17;;;;;;;23.77;12.60;;;;;;;1.66;75.98;102068.13;5135829;27;19931;-68
2022/12/03 10:46:06;;;;;;;25.92;14.23;;;;;;;1.72;75.46;102062.19;5150289;27;20106;-68
2022/12/03 10:48:37;;;;;;;26.25;13.20;;;;;;;1.74;75.61;102065.72;5135581;27;20467;-66
2022/12/03 10:51:19;;;;;;;25.90;13.52;;;;;;;1.86;75.23;102062.56;5137297;27;20141;-68
2022/12/03 10:53:49;;;;;;;25.13;13.95;;;;;;;1.83;75.45;102060.75;5148111;27;20039;-66
2022/12/03 10:56:24;;;;;;;27.15;13.48;;;;;;;1.92;75.13;102054.94;5136401;27;20043;-69
2022/12/03 10:58:52;;;;;;;25.40;14.65;;;;;;;1.90;74.86;102055.69;5147039;27;20035;-66
2022/12/03 11:01:24;;;;;;;27.38;14.02;;;;;;;1.87;74.75;102051.31;5140675;27;20043;-67
2022/12/03 11:03:55;;;;;;;27.17;14.07;;;;;;;1.88;75.13;102047.00;5140121;27;20069;-68
2022/12/03 11:06:25;;;;;;;24.58;13.43;;;;;;;1.88;74.80;102047.88;5148776;27;20122;-67
2022/12/03 11:08:53;;;;;;;24.83;13.68;;;;;;;1.89;74.85;102048.75;5147989;27;20036;-67
2022/12/03 11:11:29;;;;;;;26.10;13.98;;;;;;;1.86;74.55;102036.53;5147185;27;20061;-67
2022/12/03 11:14:02;;;;;;;27.17;13.45;;;;;;;1.83;74.76;102050.34;5137930;27;20047;-66
2022/12/03 11:16:38;;;;;;;28.23;14.53;;;;;;;1.83;74.38;102041.69;5147172;27;20046;-67
2022/12/03 11:19:11;;;;;;;25.95;13.68;;;;;;;1.81;74.34;102038.16;5134475;27;20044;-67
2022/12/03 11:22:08;;;;;;;27.65;13.65;;;;;;;1.75;74.80;102033.69;5137864;27;20073;-67
2022/12/03 11:24:39;;;;;;;27.73;16.25;;;;;;;1.75;74.64;102025.88;5143843;27;20103;-67
2022/12/03 11:27:17;;;;;;;40.45;24.70;;;;;;;1.73;75.39;102024.97;5141221;27;20040;-67
2022/12/03 11:29:53;;;;;;;26.13;14.10;;;;;;;1.76;75.54;102017.25;5140140;27;20054;-68
2022/12/03 11:32:39;;;;;;;41.10;25.30;;;;;;;1.77;76.03;102019.00;5139696;27;20042;-67
2022/12/03 11:35:35;;;;;;;30.73;15.80;;;;;;;1.82;75.32;102025.19;5140801;27;20039;-67
2022/12/03 11:38:43;;;;;;;58.78;33.75;;;;;;;1.80;75.37;102013.88;5129566;27;20428;-66
2022/12/03 11:41:25;;;;;;;27.65;14.73;;;;;;;1.83;75.19;102011.34;5137696;27;20473;-66
2022/12/03 11:43:54;;;;;;;35.00;17.60;;;;;;;1.77;75.18;102010.31;5139702;27;20043;-68
2022/12/03 11:46:36;;;;;;;30.05;14.60;;;;;;;1.76;75.15;102004.25;5142358;27;20035;-68
2022/12/03 11:49:36;;;;;;;32.03;15.45;;;;;;;1.72;75.42;102006.75;5142160;27;20077;-68
2022/12/03 11:52:30;;;;;;;31.02;15.68;;;;;;;1.70;75.39;102002.38;5137848;27;20047;-67